createdAt,value
2018-01-23T00:00:46.206Z,7.90
2018-01-23T00:03:14.452Z,7.90
2018-01-23T00:05:42.028Z,7.90
2018-01-23T00:08:10.267Z,7.90
2018-01-23T00:10:37.773Z,7.90
2018-01-23T00:13:05.268Z,7.80
2018-01-23T00:15:33.496Z,7.90
2018-01-23T00:18:00.979Z,7.90
2018-01-23T00:20:29.236Z,7.80
2018-01-23T00:22:57.490Z,7.90
2018-01-23T00:25:25.756Z,7.90
2018-01-23T00:27:54.012Z,7.90
2018-01-23T00:30:22.248Z,7.80
2018-01-23T00:32:49.812Z,7.80
2018-01-23T00:35:18.075Z,7.80
2018-01-23T00:37:46.312Z,7.90
2018-01-23T00:40:13.876Z,7.80
2018-01-23T00:42:42.108Z,7.90
2018-01-23T00:45:09.573Z,7.90
2018-01-23T00:47:37.855Z,7.90
2018-01-23T00:50:06.212Z,8.00
2018-01-23T00:52:34.460Z,7.90
2018-01-23T00:55:02.709Z,7.90
2018-01-23T00:57:30.261Z,7.90
2018-01-23T00:59:58.500Z,7.90
2018-01-23T01:02:25.970Z,7.90
2018-01-23T01:04:54.239Z,7.80
2018-01-23T01:07:22.468Z,7.90
2018-01-23T01:09:50.028Z,7.80
2018-01-23T01:12:18.260Z,7.90
2018-01-23T01:14:45.729Z,7.90
2018-01-23T01:17:14.092Z,8.00
2018-01-23T01:19:42.323Z,7.90
2018-01-23T01:22:09.795Z,7.90
2018-01-23T01:24:38.042Z,7.90
2018-01-23T01:27:05.516Z,7.90
2018-01-23T01:29:32.986Z,7.90
2018-01-23T01:32:00.475Z,7.90
2018-01-23T01:34:28.748Z,7.90
2018-01-23T01:36:57.001Z,7.90
2018-01-23T01:39:25.260Z,8.00
2018-01-23T01:41:53.492Z,7.90
2018-01-23T01:44:21.060Z,7.90
2018-01-23T01:46:49.293Z,7.90
2018-01-23T01:49:16.768Z,7.80
2018-01-23T01:51:45.120Z,7.80
2018-01-23T01:54:12.672Z,7.80
2018-01-23T01:56:40.940Z,7.80
2018-01-23T01:59:09.200Z,7.90
2018-01-23T02:01:37.453Z,7.80
2018-01-23T02:04:05.714Z,7.80
2018-01-23T02:06:33.972Z,7.70
2018-01-23T02:09:02.208Z,7.70
2018-01-23T02:11:29.687Z,7.60
2018-01-23T02:13:57.935Z,7.70
2018-01-23T02:16:26.200Z,7.70
2018-01-23T02:18:54.505Z,7.80
2018-01-23T02:21:21.968Z,7.80
2018-01-23T02:23:49.441Z,7.70
2018-01-23T02:26:16.980Z,7.80
2018-01-23T02:28:45.220Z,7.80
2018-01-23T02:31:12.784Z,7.80
2018-01-23T02:33:41.020Z,7.90
2018-01-23T02:36:08.497Z,7.90
2018-01-23T02:38:36.852Z,7.80
2018-01-23T02:41:05.121Z,7.90
2018-01-23T02:43:33.372Z,8.00
2018-01-23T02:46:01.605Z,8.00
2018-01-23T02:48:29.071Z,8.00
2018-01-23T02:50:57.334Z,8.20
2018-01-23T02:53:25.573Z,8.10
2018-01-23T02:55:53.140Z,8.10
2018-01-23T02:58:21.389Z,8.10
2018-01-23T03:00:48.948Z,8.10
2018-01-23T03:03:17.204Z,8.20
2018-01-23T03:05:45.433Z,8.20
2018-01-23T03:08:12.906Z,8.20
2018-01-23T03:10:41.166Z,8.10
2018-01-23T03:13:09.425Z,8.20
2018-01-23T03:15:37.696Z,8.20
2018-01-23T03:18:05.958Z,8.30
2018-01-23T03:20:34.192Z,8.30
2018-01-23T03:23:01.664Z,8.30
2018-01-23T03:25:29.896Z,8.30
2018-01-23T03:27:57.446Z,8.30
2018-01-23T03:30:25.716Z,8.20
2018-01-23T03:32:53.939Z,8.20
2018-01-23T03:35:21.411Z,8.20
2018-01-23T03:37:49.767Z,8.20
2018-01-23T03:40:18.028Z,8.20
2018-01-23T03:42:46.257Z,8.10
2018-01-23T03:45:13.752Z,8.10
2018-01-23T03:47:42.099Z,8.10
2018-01-23T03:50:10.340Z,8.00
2018-01-23T03:52:37.902Z,8.00
2018-01-23T03:55:06.278Z,8.00
2018-01-23T03:57:34.504Z,8.00
2018-01-23T04:00:02.014Z,8.00
2018-01-23T04:02:30.228Z,8.00
2018-01-23T04:04:58.491Z,7.80
2018-01-23T04:07:26.849Z,7.90
2018-01-23T04:09:55.119Z,7.90
2018-01-23T04:12:23.372Z,7.80
2018-01-23T04:14:51.613Z,7.80
2018-01-23T04:17:19.167Z,7.80
2018-01-23T04:19:47.635Z,7.80
2018-01-23T04:22:15.866Z,7.70
2018-01-23T04:24:43.324Z,7.70
2018-01-23T04:27:10.821Z,7.80
2018-01-23T04:29:38.326Z,7.80
2018-01-23T04:32:06.557Z,7.90
2018-01-23T04:34:34.038Z,7.80
2018-01-23T04:37:02.289Z,7.80
2018-01-23T04:39:30.532Z,7.90
2018-01-23T04:41:58.096Z,7.90
2018-01-23T04:44:26.348Z,7.80
2018-01-23T04:46:54.584Z,7.80
2018-01-23T04:49:22.158Z,7.80
2018-01-23T04:51:50.409Z,7.70
2018-01-23T04:54:18.672Z,7.60
2018-01-23T04:56:46.940Z,7.60
2018-01-23T04:59:15.208Z,7.60
2018-01-23T05:01:43.464Z,7.60
2018-01-23T05:04:10.943Z,7.60
2018-01-23T05:06:38.409Z,7.50
2018-01-23T05:09:05.996Z,7.50
2018-01-23T05:11:33.907Z,7.50
2018-01-23T05:14:01.374Z,7.50
2018-01-23T05:16:29.649Z,7.50
2018-01-23T05:18:57.905Z,7.60
2018-01-23T05:21:26.163Z,7.60
2018-01-23T05:23:54.402Z,7.60
2018-01-23T05:26:21.860Z,7.60
2018-01-23T05:28:50.095Z,7.60
2018-01-23T05:31:17.568Z,7.60
2018-01-23T05:33:45.791Z,7.60
2018-01-23T05:36:13.260Z,7.60
2018-01-23T05:38:41.576Z,7.50
2018-01-23T05:41:09.040Z,7.50
2018-01-23T05:43:36.625Z,7.50
2018-01-23T05:46:04.877Z,7.30
2018-01-23T05:48:33.109Z,7.20
2018-01-23T05:51:00.784Z,7.20
2018-01-23T05:53:29.015Z,7.20
2018-01-23T05:55:56.476Z,7.20
2018-01-23T05:58:24.736Z,7.30
2018-01-23T06:03:47.761Z,7.20
2018-01-23T06:06:32.514Z,7.20
2018-01-23T06:09:00.876Z,7.30
2018-01-23T06:11:29.178Z,7.20
2018-01-23T06:13:56.683Z,7.20
2018-01-23T06:16:24.923Z,7.30
2018-01-23T06:18:52.401Z,7.30
2018-01-23T06:21:19.887Z,7.40
2018-01-23T06:23:47.360Z,7.50
2018-01-23T06:26:15.596Z,7.50
2018-01-23T06:28:43.064Z,7.50
2018-01-23T06:31:11.300Z,7.50
2018-01-23T06:33:38.784Z,7.40
2018-01-23T06:36:07.003Z,7.50
2018-01-23T06:38:34.568Z,7.50
2018-01-23T06:41:02.832Z,7.50
2018-01-23T06:43:31.101Z,7.40
2018-01-23T06:45:59.348Z,7.40
2018-01-23T06:48:27.617Z,7.40
2018-01-23T06:50:55.860Z,7.40
2018-01-23T06:53:23.624Z,7.40
2018-01-23T06:55:51.084Z,7.40
2018-01-23T06:58:18.544Z,7.50
2018-01-23T07:00:46.092Z,7.50
2018-01-23T07:03:14.355Z,7.50
2018-01-23T07:05:42.585Z,7.50
2018-01-23T07:08:10.167Z,7.40
2018-01-23T07:10:38.395Z,7.50
2018-01-23T07:13:05.900Z,7.50
2018-01-23T07:15:33.406Z,7.50
2018-01-23T07:18:01.680Z,7.60
2018-01-23T07:20:30.037Z,7.60
2018-01-23T07:22:58.264Z,7.60
2018-01-23T07:25:25.732Z,7.60
2018-01-23T07:27:53.992Z,7.60
2018-01-23T07:30:22.261Z,7.60
2018-01-23T07:32:50.490Z,7.70
2018-01-23T07:35:18.280Z,7.60
2018-01-23T07:37:45.795Z,7.70
2018-01-23T07:40:14.035Z,7.70
2018-01-23T07:42:41.603Z,7.70
2018-01-23T07:45:09.836Z,7.70
2018-01-23T07:47:37.311Z,7.60
2018-01-23T07:50:05.577Z,7.70
2018-01-23T07:52:33.813Z,7.70
2018-01-23T07:55:01.275Z,7.70
2018-01-23T07:57:28.740Z,7.80
2018-01-23T07:59:56.995Z,7.80
2018-01-23T08:02:25.251Z,7.90
2018-01-23T08:04:53.536Z,7.80
2018-01-23T08:07:21.013Z,7.80
2018-01-23T08:09:48.481Z,7.90
2018-01-23T08:12:15.999Z,8.00
2018-01-23T08:14:43.440Z,8.00
2018-01-23T08:17:10.924Z,8.00
2018-01-23T08:19:39.196Z,8.10
2018-01-23T08:22:06.694Z,8.10
2018-01-23T08:24:34.168Z,8.10
2018-01-23T08:27:02.435Z,8.10
2018-01-23T08:29:30.787Z,8.10
2018-01-23T08:31:59.048Z,8.10
2018-01-23T08:34:27.317Z,8.10
2018-01-23T08:36:55.784Z,8.10
2018-01-23T08:39:24.032Z,8.10
2018-01-23T08:41:52.292Z,8.00
2018-01-23T08:44:21.369Z,8.00
2018-01-23T08:46:49.648Z,8.00
2018-01-23T08:49:17.128Z,8.00
2018-01-23T08:51:44.824Z,8.00
2018-01-23T08:54:13.100Z,8.20
2018-01-23T08:56:40.565Z,8.20
2018-01-23T08:59:08.175Z,8.20
2018-01-23T09:01:35.640Z,8.30
2018-01-23T09:04:03.114Z,8.40
2018-01-23T09:06:31.350Z,8.40
2018-01-23T09:08:58.825Z,8.40
2018-01-23T09:11:27.057Z,8.50
2018-01-23T09:13:54.516Z,8.50
2018-01-23T09:16:22.759Z,8.50
2018-01-23T09:18:50.317Z,8.50
2018-01-23T09:21:18.597Z,8.50
2018-01-23T09:23:46.154Z,8.50
2018-01-23T09:26:13.769Z,8.60
2018-01-23T09:28:42.008Z,8.60
2018-01-23T09:31:09.484Z,8.60
2018-01-23T09:33:36.964Z,8.70
2018-01-23T09:36:04.440Z,8.70
2018-01-23T09:38:31.944Z,8.80
2018-01-23T09:43:50.224Z,8.80
2018-01-23T09:46:18.492Z,8.70
2018-01-23T09:48:46.724Z,8.70
2018-01-23T09:51:14.301Z,8.70
2018-01-23T09:53:42.553Z,8.70
2018-01-23T09:56:10.049Z,8.70
2018-01-23T09:58:37.612Z,8.80
2018-01-23T10:01:05.890Z,8.70
2018-01-23T10:03:34.236Z,8.80
2018-01-23T10:06:02.496Z,8.70
2018-01-23T10:08:30.760Z,8.70
2018-01-23T10:10:59.020Z,8.70
2018-01-23T10:13:27.284Z,8.70
2018-01-23T10:18:46.736Z,8.70
2018-01-23T10:21:14.959Z,8.70
2018-01-23T10:23:42.424Z,8.70
2018-01-23T10:26:09.980Z,8.70
2018-01-23T10:28:38.237Z,8.90
2018-01-23T10:31:06.476Z,8.90
2018-01-23T10:33:33.944Z,8.90
2018-01-23T10:36:02.221Z,9.00
2018-01-23T10:38:30.475Z,9.10
2018-01-23T10:40:58.720Z,9.10
2018-01-23T10:43:26.962Z,9.10
2018-01-23T10:45:54.436Z,9.10
2018-01-23T10:48:22.671Z,9.20
2018-01-23T10:50:50.132Z,9.20
2018-01-23T10:53:18.592Z,9.20
2018-01-23T10:55:46.196Z,9.20
2018-01-23T10:58:14.460Z,9.40
2018-01-23T11:00:48.392Z,9.40
2018-01-23T11:03:15.856Z,9.30
2018-01-23T11:05:43.538Z,9.30
2018-01-23T11:08:11.803Z,9.30
2018-01-23T11:10:40.025Z,9.40
2018-01-23T11:13:07.503Z,9.30
2018-01-23T11:15:34.963Z,9.40
2018-01-23T11:18:02.604Z,9.40
2018-01-23T11:20:30.832Z,9.40
2018-01-23T11:22:58.307Z,9.40
2018-01-23T11:25:26.540Z,9.50
2018-01-23T11:27:54.005Z,9.50
2018-01-23T11:30:22.352Z,9.70
2018-01-23T11:32:50.592Z,9.80
2018-01-23T11:35:18.273Z,9.70
2018-01-23T11:37:46.535Z,10.00
2018-01-23T11:40:14.004Z,10.00
2018-01-23T11:42:41.500Z,10.10
2018-01-23T11:45:09.767Z,10.10
2018-01-23T11:47:38.004Z,10.10
2018-01-23T11:50:05.676Z,10.10
2018-01-23T11:52:33.920Z,10.30
2018-01-23T11:55:01.394Z,10.30
2018-01-23T11:57:28.860Z,10.70
2018-01-23T11:59:56.420Z,10.80
2018-01-23T12:02:24.709Z,10.90
2018-01-23T12:04:52.225Z,10.90
2018-01-23T12:07:20.467Z,10.90
2018-01-23T12:09:47.936Z,10.90
2018-01-23T12:20:44.648Z,12.10
2018-01-23T12:23:12.880Z,11.70
2018-01-23T12:25:40.389Z,11.70
2018-01-23T12:28:07.924Z,11.40
2018-01-23T12:30:35.392Z,11.30
2018-01-23T12:33:03.129Z,11.20
2018-01-23T12:35:31.434Z,10.60
2018-01-23T12:37:59.640Z,10.50
2018-01-23T12:40:27.880Z,10.50
2018-01-23T12:42:55.340Z,10.50
2018-01-23T12:45:23.813Z,10.30
2018-01-23T12:47:52.080Z,10.40
2018-01-23T12:50:20.311Z,10.40
2018-01-23T12:52:47.985Z,10.40
2018-01-23T12:55:16.212Z,10.50
2018-01-23T12:57:43.776Z,10.50
2018-01-23T13:00:12.004Z,10.40
2018-01-23T13:02:39.481Z,10.40
2018-01-23T13:05:07.748Z,10.40
2018-01-23T13:07:35.999Z,10.40
2018-01-23T13:10:04.428Z,10.50
2018-01-23T13:12:31.892Z,10.50
2018-01-23T13:14:59.448Z,10.60
2018-01-23T13:17:27.682Z,10.50
2018-01-23T13:19:55.256Z,10.50
2018-01-23T13:22:23.488Z,10.70
2018-01-23T13:24:51.744Z,10.60
2018-01-23T13:27:19.968Z,10.50
2018-01-23T13:29:47.532Z,10.40
2018-01-23T13:32:15.804Z,10.60
2018-01-23T13:34:44.056Z,10.60
2018-01-23T13:37:12.508Z,10.80
2018-01-23T13:39:39.964Z,10.70
2018-01-23T13:42:08.223Z,10.90
2018-01-23T13:44:36.457Z,11.10
2018-01-23T13:47:03.928Z,11.10
2018-01-23T13:49:32.177Z,11.00
2018-01-23T13:52:01.173Z,11.20
2018-01-23T13:54:29.396Z,11.00
2018-01-23T13:56:56.890Z,11.00
2018-01-23T13:59:24.407Z,10.80
2018-01-23T14:01:52.637Z,11.00
2018-01-23T14:04:20.218Z,11.00
2018-01-23T14:06:47.763Z,11.40
2018-01-23T14:09:16.008Z,12.10
2018-01-23T14:11:43.468Z,12.10
2018-01-23T14:14:11.813Z,12.40
2018-01-23T14:16:40.049Z,12.30
2018-01-23T14:19:07.616Z,12.30
2018-01-23T14:21:35.072Z,12.30
2018-01-23T14:24:02.617Z,12.20
2018-01-23T14:26:30.128Z,12.00
2018-01-23T14:28:58.393Z,12.00
2018-01-23T14:31:25.920Z,12.00
2018-01-23T14:33:53.380Z,11.90
2018-01-23T14:36:20.872Z,11.60
2018-01-23T14:38:49.101Z,11.40
2018-01-23T14:41:16.557Z,11.40
2018-01-23T14:43:44.012Z,11.30
2018-01-23T14:46:12.268Z,11.30
2018-01-23T14:48:40.533Z,11.20
2018-01-23T14:51:08.072Z,11.20
2018-01-23T14:53:35.617Z,11.10
2018-01-23T14:56:03.080Z,11.00
2018-01-23T14:58:30.600Z,10.80
2018-01-23T15:00:58.146Z,10.70
2018-01-23T15:03:25.604Z,10.70
2018-01-23T15:05:53.080Z,10.70
2018-01-23T15:08:20.575Z,10.50
2018-01-23T15:10:48.831Z,10.60
2018-01-23T15:13:16.382Z,10.50
2018-01-23T15:15:44.612Z,10.60
2018-01-23T15:18:12.072Z,10.60
2018-01-23T15:20:39.615Z,10.60
2018-01-23T15:23:07.160Z,10.50
2018-01-23T15:25:34.705Z,10.50
2018-01-23T15:28:02.253Z,10.50
2018-01-23T15:30:29.708Z,10.50
2018-01-23T15:32:57.168Z,10.50
2018-01-23T15:35:25.447Z,10.50
2018-01-23T15:37:53.660Z,10.50
2018-01-23T15:40:21.122Z,10.40
2018-01-23T15:42:49.360Z,10.30
2018-01-23T15:45:16.816Z,10.30
2018-01-23T15:47:45.047Z,10.30
2018-01-23T15:50:12.548Z,10.30
2018-01-23T15:52:40.004Z,10.30
2018-01-23T15:55:07.476Z,10.30
2018-01-23T15:57:34.955Z,10.30
2018-01-23T16:00:03.194Z,10.30
2018-01-23T16:02:31.424Z,10.30
2018-01-23T16:04:59.108Z,10.20
2018-01-23T16:07:26.568Z,10.10
2018-01-23T16:09:54.799Z,10.00
2018-01-23T16:12:22.352Z,10.00
2018-01-23T16:14:49.812Z,9.80
2018-01-23T16:17:18.047Z,9.40
2018-01-23T16:19:45.608Z,9.40
2018-01-23T16:22:13.836Z,9.20
2018-01-23T16:24:41.293Z,9.20
2018-01-23T16:27:08.776Z,9.20
2018-01-23T16:29:36.352Z,9.10
2018-01-23T16:32:03.832Z,9.10
2018-01-23T16:34:32.090Z,9.00
2018-01-23T16:37:00.317Z,9.10
2018-01-23T16:39:27.791Z,9.10
2018-01-23T16:41:55.332Z,9.20
2018-01-23T16:44:23.637Z,9.30
2018-01-23T16:46:51.095Z,9.30
2018-01-23T16:49:18.568Z,9.40
2018-01-23T16:51:46.127Z,9.30
2018-01-23T16:54:14.376Z,9.40
2018-01-23T16:56:41.921Z,9.30
2018-01-23T16:59:09.382Z,9.40
2018-01-23T17:01:37.613Z,9.40
2018-01-23T17:04:06.601Z,9.40
2018-01-23T17:06:34.066Z,9.40
2018-01-23T17:09:01.866Z,9.40
2018-01-23T17:11:29.436Z,9.40
2018-01-23T17:13:58.030Z,9.40
2018-01-23T17:16:25.672Z,9.40
2018-01-23T17:18:53.917Z,9.40
2018-01-23T17:21:22.160Z,9.40
2018-01-23T17:23:49.720Z,9.40
2018-01-23T17:26:17.948Z,9.40
2018-01-23T17:28:45.396Z,9.40
2018-01-23T17:31:12.956Z,9.40
2018-01-23T17:33:40.416Z,9.50
2018-01-23T17:36:08.664Z,9.50
2018-01-23T17:38:36.892Z,9.50
2018-01-23T17:41:04.350Z,9.50
2018-01-23T17:43:32.004Z,9.50
2018-01-23T17:46:00.285Z,9.50
2018-01-23T17:48:28.511Z,9.50
2018-01-23T17:51:49.814Z,9.60
2018-01-23T17:54:17.264Z,9.60
2018-01-23T17:56:44.809Z,9.60
2018-01-23T17:59:12.264Z,9.60
2018-01-23T18:01:40.490Z,9.60
2018-01-23T18:06:59.557Z,9.60
2018-01-23T18:09:27.100Z,9.60
2018-01-23T18:11:55.336Z,9.70
2018-01-23T18:14:22.812Z,9.70
2018-01-23T18:16:51.028Z,9.80
2018-01-23T18:19:18.488Z,9.80
2018-01-23T18:21:45.940Z,9.80
2018-01-23T18:24:13.400Z,9.80
2018-01-23T18:26:41.648Z,9.80
2018-01-23T18:29:09.955Z,9.90
2018-01-23T18:31:37.441Z,9.80
2018-01-23T18:34:05.006Z,9.80
2018-01-23T18:36:33.217Z,9.90
2018-01-23T18:39:00.694Z,9.90
2018-01-23T18:41:28.956Z,9.90
2018-01-23T18:43:56.464Z,9.90
2018-01-23T18:46:24.092Z,10.00
2018-01-23T18:48:51.540Z,9.90
2018-01-23T18:51:19.032Z,9.90
2018-01-23T18:53:47.257Z,9.90
2018-01-23T18:56:14.720Z,9.90
2018-01-23T18:58:42.474Z,9.90
2018-01-23T19:01:09.940Z,9.80
2018-01-23T19:03:37.413Z,9.90
2018-01-23T19:06:04.901Z,9.90
2018-01-23T19:08:33.123Z,10.00
2018-01-23T19:11:00.703Z,10.00
2018-01-23T19:13:28.935Z,10.10
2018-01-23T19:15:56.512Z,10.00
2018-01-23T19:18:24.748Z,10.00
2018-01-23T19:20:52.311Z,10.00
2018-01-23T19:23:20.676Z,10.10
2018-01-23T19:25:48.905Z,10.10
2018-01-23T19:28:16.479Z,10.10
2018-01-23T19:33:36.700Z,9.80
2018-01-23T19:36:04.179Z,9.80
2018-01-23T19:38:31.800Z,9.70
2018-01-23T19:40:59.278Z,9.50
2018-01-23T19:43:26.764Z,9.50
2018-01-23T19:45:54.235Z,9.50
2018-01-23T19:48:21.812Z,9.40
2018-01-23T19:50:50.032Z,9.40
2018-01-23T19:53:17.516Z,9.40
2018-01-23T19:55:45.771Z,9.30
2018-01-23T19:58:14.032Z,9.30
2018-01-23T20:00:42.301Z,9.30
2018-01-23T20:03:11.540Z,9.30
2018-01-23T20:05:39.045Z,9.30
2018-01-23T20:08:06.584Z,9.20
2018-01-23T20:10:34.114Z,9.20
2018-01-23T20:13:02.372Z,9.20
2018-01-23T20:15:30.045Z,9.20
2018-01-23T20:17:57.560Z,9.20
2018-01-23T20:20:25.831Z,9.20
2018-01-23T20:22:53.285Z,9.20
2018-01-23T20:25:20.901Z,9.20
2018-01-23T20:27:49.367Z,9.10
2018-01-23T20:30:17.592Z,9.10
2018-01-23T20:32:45.248Z,9.10
2018-01-23T20:35:12.849Z,9.10
2018-01-23T20:37:40.455Z,9.10
2018-01-23T20:40:08.157Z,9.10
2018-01-23T20:42:35.676Z,9.10
2018-01-23T20:45:03.279Z,9.10
2018-01-23T20:47:30.890Z,9.10
2018-01-23T20:49:59.995Z,9.00
2018-01-23T20:52:27.719Z,9.00
2018-01-23T20:54:55.361Z,9.10
2018-01-23T20:57:22.972Z,9.10
2018-01-23T20:59:51.271Z,9.10
2018-01-23T21:02:18.731Z,9.10
2018-01-23T21:04:46.208Z,9.10
2018-01-23T21:07:14.469Z,9.20
2018-01-23T21:09:42.776Z,9.20
2018-01-23T21:12:10.318Z,9.20
2018-01-23T21:14:37.813Z,9.20
2018-01-23T21:17:06.072Z,9.10
2018-01-23T21:19:34.343Z,9.10
2018-01-23T21:22:02.577Z,9.20
2018-01-23T21:24:30.064Z,9.20
2018-01-23T21:26:57.571Z,9.20
2018-01-23T21:29:25.033Z,9.20
2018-01-23T21:31:53.280Z,9.20
2018-01-23T21:34:21.515Z,9.20
2018-01-23T21:36:49.061Z,9.10
2018-01-23T21:39:16.667Z,9.20
2018-01-23T21:41:44.200Z,9.20
2018-01-23T21:44:11.967Z,9.20
2018-01-23T21:49:30.861Z,9.50
2018-01-23T21:51:59.112Z,9.50
2018-01-23T21:54:26.588Z,9.50
2018-01-23T21:56:54.148Z,9.50
2018-01-23T21:59:21.860Z,9.50
2018-01-23T22:01:49.592Z,9.60
2018-01-23T22:04:17.056Z,9.70
2018-01-23T22:06:45.309Z,9.70
2018-01-23T22:09:13.552Z,9.70
2018-01-23T22:11:41.027Z,9.70
2018-01-23T22:14:08.564Z,9.70
2018-01-23T22:16:36.107Z,9.70
2018-01-23T22:21:55.423Z,9.80
2018-01-23T22:24:22.884Z,9.80
2018-01-23T22:26:50.393Z,9.70
2018-01-23T22:29:17.907Z,9.70
2018-01-23T22:31:46.152Z,9.70
2018-01-23T22:34:14.401Z,9.70
2018-01-23T22:36:41.868Z,9.70
2018-01-23T22:39:10.088Z,9.60
2018-01-23T22:41:37.651Z,9.60
2018-01-23T22:44:05.887Z,9.60
2018-01-23T22:46:33.388Z,9.60
2018-01-23T22:49:00.860Z,9.60
2018-01-23T22:51:28.336Z,9.60
2018-01-23T22:53:56.014Z,9.60
2018-01-23T22:56:24.266Z,9.60
2018-01-23T22:58:52.487Z,9.60
2018-01-23T23:01:19.984Z,9.60
2018-01-23T23:03:47.452Z,9.70
2018-01-23T23:06:14.932Z,9.70
2018-01-23T23:08:42.831Z,9.80
2018-01-23T23:11:11.113Z,9.80
2018-01-23T23:13:38.586Z,9.80
2018-01-23T23:16:06.843Z,9.70
2018-01-23T23:18:35.075Z,9.70
2018-01-23T23:21:02.558Z,9.70
2018-01-23T23:23:30.037Z,9.80
2018-01-23T23:25:57.527Z,9.70
2018-01-23T23:28:25.759Z,9.80
2018-01-23T23:30:53.235Z,9.80
2018-01-23T23:33:21.491Z,9.80
2018-01-23T23:35:49.760Z,9.80
2018-01-23T23:38:18.127Z,9.80
2018-01-23T23:40:46.377Z,9.80
2018-01-23T23:43:14.683Z,9.80
2018-01-23T23:45:42.176Z,9.80
2018-01-23T23:48:09.724Z,9.80
2018-01-23T23:50:37.273Z,9.80
2018-01-23T23:53:05.508Z,9.80
2018-01-23T23:55:32.976Z,9.80
2018-01-23T23:58:01.237Z,9.90
